Back to Top

Language: 

My Weather Underground Personal Weather Station Historical Data with Graphs...

Delerius Weather Station Historical Data
Daily Summary for February 3, 2018 Units:  Both    English   Metric
« Previous Day
Next Day »
Daily Weekly Monthly Yearly Custom
  High: Low: Average:
Temperature: 38.7 °F /  3.7 °C 32.2 °F /  0.1 °C 36.8 °F /  2.7 °C
Dew Point: 37.3 °F /  2.9 °C 30.4 °F /  -0.9 °C 35.4 °F /  1.9 °C
Humidity: 96 % 93 % 95 %
Wind Speed: 6.0 mph /  9.7 km/h - 1.4 mph /  2.3 km/h
Wind Gust: 13.0 mph /  20.9 km/h - -
Wind:- - SE
Pressure: 30.03 in /  1016.8 hPa 29.68 in /  1005 hPa -
Precipitation: 0.15 in /  3.81 mm    
Historical Graphs
 
 
Tabular Data for February 3, 2018
Time Temperature Dew Point Pressure Wind Wind Speed Wind Gust Humidity Rainfall Rate (Hourly) solar Conditions
00:04 32.2 °F /  0.1 °C 30.4 °F /  -0.9 °C 29.81 in /  1009.4 hPa Calm     93 % 0.00 in /  0 mm 0 W/m2
00:09 32.2 °F /  0.1 °C 30.4 °F /  -0.9 °C 29.81 in /  1009.4 hPa Calm     93 % 0.00 in /  0 mm 0 W/m2
00:14 32.2 °F /  0.1 °C 30.4 °F /  -0.9 °C 29.80 in /  1009 hPa Calm     93 % 0.00 in /  0 mm 0 W/m2
00:19 32.4 °F /  0.2 °C 30.6 °F /  -0.8 °C 29.80 in /  1009 hPa Calm     93 % 0.00 in /  0 mm 0 W/m2
00:24 32.5 °F /  0.3 °C 30.7 °F /  -0.7 °C 29.80 in /  1009 hPa Calm     93 % 0.00 in /  0 mm 0 W/m2
00:29 32.7 °F /  0.4 °C 30.9 °F /  -0.6 °C 29.80 in /  1009 hPa Calm     93 % 0.00 in /  0 mm 0 W/m2
00:34 32.7 °F /  0.4 °C 30.9 °F /  -0.6 °C 29.80 in /  1009 hPa Calm     93 % 0.00 in /  0 mm 0 W/m2
00:39 32.9 °F /  0.5 °C 31.1 °F /  -0.5 °C 29.79 in /  1008.7 hPa Calm     93 % 0.00 in /  0 mm 0 W/m2
00:44 33.1 °F /  0.6 °C 31.3 °F /  -0.4 °C 29.79 in /  1008.7 hPa Calm     93 % 0.00 in /  0 mm 0 W/m2
00:49 33.1 °F /  0.6 °C 31.3 °F /  -0.4 °C 29.79 in /  1008.7 hPa Calm     93 % 0.00 in /  0 mm 0 W/m2
00:54 33.1 °F /  0.6 °C 31.5 °F /  -0.3 °C 29.79 in /  1008.7 hPa Calm     94 % 0.00 in /  0 mm 0 W/m2
00:59 33.3 °F /  0.7 °C 31.7 °F /  -0.2 °C 29.79 in /  1008.7 hPa Calm   1.0 mph /  1.6 km/h 94 % 0.00 in /  0 mm 0 W/m2
01:04 33.4 °F /  0.8 °C 31.9 °F /  -0.1 °C 29.79 in /  1008.7 hPa Calm   1.0 mph /  1.6 km/h 94 % 0.00 in /  0 mm 0 W/m2
01:09 33.6 °F /  0.9 °C 32.1 °F /  0.1 °C 29.78 in /  1008.4 hPa Calm     94 % 0.00 in /  0 mm 0 W/m2
01:14 33.6 °F /  0.9 °C 32.1 °F /  0.1 °C 29.78 in /  1008.4 hPa Calm     94 % 0.00 in /  0 mm 0 W/m2
01:19 34.2 °F /  1.2 °C 32.6 °F /  0.3 °C 29.77 in /  1008 hPa Calm   2.0 mph /  3.2 km/h 94 % 0.00 in /  0 mm 0 W/m2
01:24 34.5 °F /  1.4 °C 33.0 °F /  0.6 °C 29.77 in /  1008 hPa Calm     94 % 0.00 in /  0 mm 0 W/m2
01:29 34.9 °F /  1.6 °C 33.3 °F /  0.7 °C 29.77 in /  1008 hPa Calm     94 % 0.00 in /  0 mm 0 W/m2
01:34 35.1 °F /  1.7 °C 33.5 °F /  0.8 °C 29.77 in /  1008 hPa Calm     94 % 0.00 in /  0 mm 0 W/m2
01:39 35.2 °F /  1.8 °C 33.7 °F /  0.9 °C 29.77 in /  1008 hPa Calm     94 % 0.00 in /  0 mm 0 W/m2
01:44 35.4 °F /  1.9 °C 33.9 °F /  1.1 °C 29.76 in /  1007.7 hPa Calm   1.0 mph /  1.6 km/h 94 % 0.00 in /  0 mm 0 W/m2
01:50 35.4 °F /  1.9 °C 33.9 °F /  1.1 °C 29.76 in /  1007.7 hPa Calm     94 % 0.00 in /  0 mm 0 W/m2
01:55 35.4 °F /  1.9 °C 33.9 °F /  1.1 °C 29.76 in /  1007.7 hPa Calm     94 % 0.00 in /  0 mm 0 W/m2
02:00 35.4 °F /  1.9 °C 33.9 °F /  1.1 °C 29.76 in /  1007.7 hPa Calm     94 % 0.00 in /  0 mm 0 W/m2
02:05 35.4 °F /  1.9 °C 33.9 °F /  1.1 °C 29.76 in /  1007.7 hPa Calm     94 % 0.00 in /  0 mm 0 W/m2
02:10 35.4 °F /  1.9 °C 33.9 °F /  1.1 °C 29.76 in /  1007.7 hPa Calm     94 % 0.00 in /  0 mm 0 W/m2
02:15 35.4 °F /  1.9 °C 33.9 °F /  1.1 °C 29.76 in /  1007.7 hPa Calm     94 % 0.00 in /  0 mm 0 W/m2
02:20 35.4 °F /  1.9 °C 33.9 °F /  1.1 °C 29.76 in /  1007.7 hPa Calm     94 % 0.00 in /  0 mm 0 W/m2
02:25 35.4 °F /  1.9 °C 33.9 °F /  1.1 °C 29.76 in /  1007.7 hPa Calm     94 % 0.00 in /  0 mm 0 W/m2
02:30 35.4 °F /  1.9 °C 33.9 °F /  1.1 °C 29.75 in /  1007.3 hPa Calm     94 % 0.00 in /  0 mm 0 W/m2
02:35 35.4 °F /  1.9 °C 33.9 °F /  1.1 °C 29.75 in /  1007.3 hPa Calm     94 % 0.00 in /  0 mm 0 W/m2
02:40 35.4 °F /  1.9 °C 33.9 °F /  1.1 °C 29.75 in /  1007.3 hPa Calm     94 % 0.00 in /  0 mm 0 W/m2
02:45 35.4 °F /  1.9 °C 33.9 °F /  1.1 °C 29.74 in /  1007 hPa Calm     94 % 0.00 in /  0 mm 0 W/m2
02:50 35.4 °F /  1.9 °C 33.9 °F /  1.1 °C 29.74 in /  1007 hPa Calm     94 % 0.00 in /  0 mm 0 W/m2
02:55 35.4 °F /  1.9 °C 33.9 °F /  1.1 °C 29.74 in /  1007 hPa Calm     94 % 0.00 in /  0 mm 0 W/m2
03:00 35.4 °F /  1.9 °C 33.9 °F /  1.1 °C 29.74 in /  1007 hPa Calm     94 % 0.00 in /  0 mm 0 W/m2
03:05 35.4 °F /  1.9 °C 33.9 °F /  1.1 °C 29.74 in /  1007 hPa Calm     94 % 0.00 in /  0 mm 0 W/m2
03:10 35.6 °F /  2 °C 34.0 °F /  1.1 °C 29.73 in /  1006.7 hPa Calm     94 % 0.00 in /  0 mm 0 W/m2
03:15 35.6 °F /  2 °C 34.0 °F /  1.1 °C 29.73 in /  1006.7 hPa Calm   1.0 mph /  1.6 km/h 94 % 0.00 in /  0 mm 0 W/m2
03:20 35.8 °F /  2.1 °C 34.2 °F /  1.2 °C 29.73 in /  1006.7 hPa WNW 1.0 mph /  1.6 km/h 5.0 mph /  8 km/h 94 % 0.00 in /  0 mm 0 W/m2
03:25 35.8 °F /  2.1 °C 34.2 °F /  1.2 °C 29.73 in /  1006.7 hPa WNW 1.0 mph /  1.6 km/h 3.0 mph /  4.8 km/h 94 % 0.00 in /  0 mm 0 W/m2
03:30 36.1 °F /  2.3 °C 34.6 °F /  1.4 °C 29.73 in /  1006.7 hPa WNW 3.0 mph /  4.8 km/h 5.0 mph /  8 km/h 94 % 0.00 in /  0 mm 0 W/m2
03:35 36.1 °F /  2.3 °C 34.6 °F /  1.4 °C 29.73 in /  1006.7 hPa WNW 2.0 mph /  3.2 km/h 5.0 mph /  8 km/h 94 % 0.00 in /  0 mm 0 W/m2
03:40 36.3 °F /  2.4 °C 34.8 °F /  1.6 °C 29.73 in /  1006.7 hPa WNW 1.0 mph /  1.6 km/h 3.0 mph /  4.8 km/h 94 % 0.01 in /  0.25 mm 0 W/m2
03:45 36.5 °F /  2.5 °C 34.9 °F /  1.6 °C 29.72 in /  1006.3 hPa WNW 1.0 mph /  1.6 km/h 2.0 mph /  3.2 km/h 94 % 0.01 in /  0.25 mm 0 W/m2
03:50 36.7 °F /  2.6 °C 35.1 °F /  1.7 °C 29.72 in /  1006.3 hPa Calm   1.0 mph /  1.6 km/h 94 % 0.01 in /  0.25 mm 0 W/m2
03:55 36.7 °F /  2.6 °C 35.1 °F /  1.7 °C 29.72 in /  1006.3 hPa Calm   2.0 mph /  3.2 km/h 94 % 0.01 in /  0.25 mm 0 W/m2
04:00 36.7 °F /  2.6 °C 35.1 °F /  1.7 °C 29.72 in /  1006.3 hPa Calm   1.0 mph /  1.6 km/h 94 % 0.01 in /  0.25 mm 0 W/m2
04:05 36.7 °F /  2.6 °C 35.1 °F /  1.7 °C 29.72 in /  1006.3 hPa Calm   2.0 mph /  3.2 km/h 94 % 0.01 in /  0.25 mm 0 W/m2
04:10 36.7 °F /  2.6 °C 35.1 °F /  1.7 °C 29.72 in /  1006.3 hPa Calm   2.0 mph /  3.2 km/h 94 % 0.01 in /  0.25 mm 0 W/m2
04:15 36.7 °F /  2.6 °C 35.1 °F /  1.7 °C 29.72 in /  1006.3 hPa WNW 1.0 mph /  1.6 km/h 4.0 mph /  6.4 km/h 94 % 0.01 in /  0.25 mm 0 W/m2
04:20 36.7 °F /  2.6 °C 35.1 °F /  1.7 °C 29.71 in /  1006 hPa WNW 1.0 mph /  1.6 km/h 4.0 mph /  6.4 km/h 94 % 0.01 in /  0.25 mm 0 W/m2
04:25 36.7 °F /  2.6 °C 35.1 °F /  1.7 °C 29.71 in /  1006 hPa West 1.0 mph /  1.6 km/h 4.0 mph /  6.4 km/h 94 % 0.01 in /  0.25 mm 0 W/m2
04:31 36.7 °F /  2.6 °C 35.1 °F /  1.7 °C 29.71 in /  1006 hPa West 1.0 mph /  1.6 km/h 2.0 mph /  3.2 km/h 94 % 0.01 in /  0.25 mm 0 W/m2
04:36 36.9 °F /  2.7 °C 35.3 °F /  1.8 °C 29.72 in /  1006.3 hPa West 1.0 mph /  1.6 km/h 3.0 mph /  4.8 km/h 94 % 0.00 in /  0 mm 0 W/m2
04:41 36.9 °F /  2.7 °C 35.3 °F /  1.8 °C 29.71 in /  1006 hPa West 1.0 mph /  1.6 km/h 1.0 mph /  1.6 km/h 94 % 0.00 in /  0 mm 0 W/m2
04:46 36.9 °F /  2.7 °C 35.3 °F /  1.8 °C 29.71 in /  1006 hPa Calm   2.0 mph /  3.2 km/h 94 % 0.01 in /  0.25 mm 0 W/m2
04:51 36.9 °F /  2.7 °C 35.3 °F /  1.8 °C 29.71 in /  1006 hPa West 1.0 mph /  1.6 km/h 2.0 mph /  3.2 km/h 94 % 0.01 in /  0.25 mm 0 W/m2
04:56 36.9 °F /  2.7 °C 35.3 °F /  1.8 °C 29.71 in /  1006 hPa West 1.0 mph /  1.6 km/h 4.0 mph /  6.4 km/h 94 % 0.01 in /  0.25 mm 0 W/m2
05:01 36.7 °F /  2.6 °C 35.1 °F /  1.7 °C 29.71 in /  1006 hPa West 2.0 mph /  3.2 km/h 5.0 mph /  8 km/h 94 % 0.01 in /  0.25 mm 0 W/m2
05:06 36.9 °F /  2.7 °C 35.3 °F /  1.8 °C 29.70 in /  1005.6 hPa West 2.0 mph /  3.2 km/h 4.0 mph /  6.4 km/h 94 % 0.01 in /  0.25 mm 0 W/m2
05:11 36.7 °F /  2.6 °C 35.1 °F /  1.7 °C 29.70 in /  1005.6 hPa Calm   2.0 mph /  3.2 km/h 94 % 0.01 in /  0.25 mm 0 W/m2
05:16 36.7 °F /  2.6 °C 35.1 °F /  1.7 °C 29.70 in /  1005.6 hPa WNW 1.0 mph /  1.6 km/h 2.0 mph /  3.2 km/h 94 % 0.01 in /  0.25 mm 0 W/m2
05:17 36.7 °F /  2.6 °C 35.1 °F /  1.7 °C 29.70 in /  1005.6 hPa WNW 1.0 mph /  1.6 km/h 2.0 mph /  3.2 km/h 94 % 0.01 in /  0.25 mm 0 W/m2
05:22 36.7 °F /  2.6 °C 35.1 °F /  1.7 °C 29.70 in /  1005.6 hPa WNW 1.0 mph /  1.6 km/h 2.0 mph /  3.2 km/h 94 % 0.01 in /  0.25 mm 0 W/m2
05:27 36.7 °F /  2.6 °C 35.1 °F /  1.7 °C 29.70 in /  1005.6 hPa WNW 2.0 mph /  3.2 km/h 5.0 mph /  8 km/h 94 % 0.01 in /  0.25 mm 0 W/m2
05:32 36.7 °F /  2.6 °C 35.1 °F /  1.7 °C 29.70 in /  1005.6 hPa WNW 2.0 mph /  3.2 km/h 5.0 mph /  8 km/h 94 % 0.01 in /  0.25 mm 0 W/m2
05:37 36.7 °F /  2.6 °C 35.1 °F /  1.7 °C 29.70 in /  1005.6 hPa WNW 1.0 mph /  1.6 km/h 4.0 mph /  6.4 km/h 94 % 0.01 in /  0.25 mm 0 W/m2
05:42 36.5 °F /  2.5 °C 34.9 °F /  1.6 °C 29.70 in /  1005.6 hPa WNW 1.0 mph /  1.6 km/h 4.0 mph /  6.4 km/h 94 % 0.00 in /  0 mm 0 W/m2
05:47 36.5 °F /  2.5 °C 34.9 °F /  1.6 °C 29.70 in /  1005.6 hPa WNW 3.0 mph /  4.8 km/h 5.0 mph /  8 km/h 94 % 0.00 in /  0 mm 0 W/m2
05:52 36.5 °F /  2.5 °C 34.9 °F /  1.6 °C 29.70 in /  1005.6 hPa WNW 3.0 mph /  4.8 km/h 6.0 mph /  9.7 km/h 94 % 0.00 in /  0 mm 0 W/m2
05:57 36.5 °F /  2.5 °C 34.9 °F /  1.6 °C 29.70 in /  1005.6 hPa WNW 1.0 mph /  1.6 km/h 4.0 mph /  6.4 km/h 94 % 0.00 in /  0 mm 0 W/m2
06:02 36.5 °F /  2.5 °C 34.9 °F /  1.6 °C 29.69 in /  1005.3 hPa Calm   2.0 mph /  3.2 km/h 94 % 0.01 in /  0.25 mm 0 W/m2
06:07 36.5 °F /  2.5 °C 34.9 °F /  1.6 °C 29.69 in /  1005.3 hPa Calm   2.0 mph /  3.2 km/h 94 % 0.01 in /  0.25 mm 0 W/m2
06:12 36.5 °F /  2.5 °C 34.9 °F /  1.6 °C 29.69 in /  1005.3 hPa Calm   2.0 mph /  3.2 km/h 94 % 0.01 in /  0.25 mm 0 W/m2
06:17 36.5 °F /  2.5 °C 34.9 °F /  1.6 °C 29.69 in /  1005.3 hPa Calm     94 % 0.01 in /  0.25 mm 0 W/m2
06:22 36.3 °F /  2.4 °C 34.8 °F /  1.6 °C 29.69 in /  1005.3 hPa Calm     94 % 0.01 in /  0.25 mm 0 W/m2
06:27 36.3 °F /  2.4 °C 34.8 °F /  1.6 °C 29.69 in /  1005.3 hPa Calm     94 % 0.01 in /  0.25 mm 0 W/m2
06:32 36.3 °F /  2.4 °C 34.8 °F /  1.6 °C 29.69 in /  1005.3 hPa Calm     94 % 0.01 in /  0.25 mm 0 W/m2
06:37 36.1 °F /  2.3 °C 34.6 °F /  1.4 °C 29.69 in /  1005.3 hPa Calm     94 % 0.01 in /  0.25 mm 0 W/m2
06:43 36.1 °F /  2.3 °C 34.6 °F /  1.4 °C 29.69 in /  1005.3 hPa Calm     94 % 0.01 in /  0.25 mm 0 W/m2
06:48 36.1 °F /  2.3 °C 34.6 °F /  1.4 °C 29.69 in /  1005.3 hPa Calm     94 % 0.01 in /  0.25 mm 0 W/m2
06:53 36.1 °F /  2.3 °C 34.6 °F /  1.4 °C 29.69 in /  1005.3 hPa Calm     94 % 0.01 in /  0.25 mm 0 W/m2
06:58 36.1 °F /  2.3 °C 34.6 °F /  1.4 °C 29.69 in /  1005.3 hPa Calm     94 % 0.01 in /  0.25 mm 0 W/m2
07:03 36.0 °F /  2.2 °C 34.4 °F /  1.3 °C 29.69 in /  1005.3 hPa Calm     94 % 0.00 in /  0 mm 0 W/m2
07:08 36.1 °F /  2.3 °C 34.6 °F /  1.4 °C 29.69 in /  1005.3 hPa Calm     94 % 0.00 in /  0 mm 0 W/m2
07:13 36.1 °F /  2.3 °C 34.6 °F /  1.4 °C 29.69 in /  1005.3 hPa Calm     94 % 0.00 in /  0 mm 0 W/m2
07:18 36.1 °F /  2.3 °C 34.8 °F /  1.6 °C 29.69 in /  1005.3 hPa Calm     95 % 0.00 in /  0 mm 0 W/m2
07:23 36.1 °F /  2.3 °C 34.8 °F /  1.6 °C 29.69 in /  1005.3 hPa Calm     95 % 0.00 in /  0 mm 0 W/m2
07:28 36.1 °F /  2.3 °C 34.8 °F /  1.6 °C 29.69 in /  1005.3 hPa Calm     95 % 0.00 in /  0 mm 0 W/m2
07:33 36.1 °F /  2.3 °C 34.8 °F /  1.6 °C 29.69 in /  1005.3 hPa Calm     95 % 0.00 in /  0 mm 0 W/m2
07:38 36.1 °F /  2.3 °C 34.8 °F /  1.6 °C 29.69 in /  1005.3 hPa Calm     95 % 0.01 in /  0.25 mm 0 W/m2
07:43 36.1 °F /  2.3 °C 34.8 °F /  1.6 °C 29.69 in /  1005.3 hPa Calm     95 % 0.01 in /  0.25 mm 0 W/m2
07:48 36.1 °F /  2.3 °C 34.8 °F /  1.6 °C 29.69 in /  1005.3 hPa Calm     95 % 0.01 in /  0.25 mm 0 W/m2
07:53 36.1 °F /  2.3 °C 34.8 °F /  1.6 °C 29.69 in /  1005.3 hPa Calm     95 % 0.01 in /  0.25 mm 0 W/m2
07:58 36.1 °F /  2.3 °C 34.8 °F /  1.6 °C 29.69 in /  1005.3 hPa Calm     95 % 0.01 in /  0.25 mm 0 W/m2
08:03 36.1 °F /  2.3 °C 34.8 °F /  1.6 °C 29.69 in /  1005.3 hPa Calm     95 % 0.01 in /  0.25 mm 0 W/m2
08:08 36.1 °F /  2.3 °C 34.8 °F /  1.6 °C 29.69 in /  1005.3 hPa Calm     95 % 0.02 in /  0.51 mm 0 W/m2
08:13 36.1 °F /  2.3 °C 34.8 °F /  1.6 °C 29.69 in /  1005.3 hPa Calm     95 % 0.02 in /  0.51 mm 5 W/m2
08:18 36.1 °F /  2.3 °C 34.8 °F /  1.6 °C 29.69 in /  1005.3 hPa Calm     95 % 0.02 in /  0.51 mm 5 W/m2
08:23 36.1 °F /  2.3 °C 34.8 °F /  1.6 °C 29.68 in /  1005 hPa Calm     95 % 0.02 in /  0.51 mm 7 W/m2
08:28 36.1 °F /  2.3 °C 34.8 °F /  1.6 °C 29.69 in /  1005.3 hPa Calm     95 % 0.02 in /  0.51 mm 11 W/m2
08:33 36.3 °F /  2.4 °C 35.0 °F /  1.7 °C 29.69 in /  1005.3 hPa Calm     95 % 0.02 in /  0.51 mm 12 W/m2
08:38 36.3 °F /  2.4 °C 35.0 °F /  1.7 °C 29.69 in /  1005.3 hPa Calm     95 % 0.02 in /  0.51 mm 14 W/m2
08:43 36.3 °F /  2.4 °C 35.0 °F /  1.7 °C 29.68 in /  1005 hPa Calm     95 % 0.02 in /  0.51 mm 16 W/m2
08:49 36.3 °F /  2.4 °C 35.0 °F /  1.7 °C 29.69 in /  1005.3 hPa Calm     95 % 0.02 in /  0.51 mm 16 W/m2
08:54 36.3 °F /  2.4 °C 35.0 °F /  1.7 °C 29.69 in /  1005.3 hPa Calm     95 % 0.02 in /  0.51 mm 18 W/m2
08:59 36.3 °F /  2.4 °C 35.0 °F /  1.7 °C 29.68 in /  1005 hPa Calm     95 % 0.02 in /  0.51 mm 19 W/m2
09:04 36.5 °F /  2.5 °C 35.2 °F /  1.8 °C 29.68 in /  1005 hPa Calm     95 % 0.02 in /  0.51 mm 23 W/m2
09:09 36.5 °F /  2.5 °C 35.2 °F /  1.8 °C 29.68 in /  1005 hPa Calm     95 % 0.02 in /  0.51 mm 28 W/m2
09:14 36.5 °F /  2.5 °C 35.2 °F /  1.8 °C 29.68 in /  1005 hPa Calm     95 % 0.02 in /  0.51 mm 32 W/m2
09:19 36.7 °F /  2.6 °C 35.4 °F /  1.9 °C 29.68 in /  1005 hPa Calm     95 % 0.02 in /  0.51 mm 39 W/m2
09:24 36.7 °F /  2.6 °C 35.4 °F /  1.9 °C 29.68 in /  1005 hPa Calm     95 % 0.02 in /  0.51 mm 44 W/m2
09:29 36.7 °F /  2.6 °C 35.4 °F /  1.9 °C 29.68 in /  1005 hPa Calm     95 % 0.02 in /  0.51 mm 47 W/m2
09:34 36.9 °F /  2.7 °C 35.6 °F /  2 °C 29.68 in /  1005 hPa Calm     95 % 0.02 in /  0.51 mm 49 W/m2
09:39 36.9 °F /  2.7 °C 35.6 °F /  2 °C 29.68 in /  1005 hPa Calm     95 % 0.01 in /  0.25 mm 54 W/m2
09:44 37.0 °F /  2.8 °C 35.7 °F /  2.1 °C 29.68 in /  1005 hPa Calm     95 % 0.01 in /  0.25 mm 62 W/m2
09:49 37.0 °F /  2.8 °C 35.7 °F /  2.1 °C 29.68 in /  1005 hPa Calm     95 % 0.01 in /  0.25 mm 67 W/m2
09:54 37.0 °F /  2.8 °C 36.0 °F /  2.2 °C 29.68 in /  1005 hPa Calm     96 % 0.01 in /  0.25 mm 70 W/m2
09:59 37.2 °F /  2.9 °C 36.2 °F /  2.3 °C 29.68 in /  1005 hPa Calm     96 % 0.01 in /  0.25 mm 79 W/m2
10:04 37.4 °F /  3 °C 36.4 °F /  2.4 °C 29.68 in /  1005 hPa Calm     96 % 0.00 in /  0 mm 83 W/m2
10:09 37.6 °F /  3.1 °C 36.5 °F /  2.5 °C 29.68 in /  1005 hPa Calm   1.0 mph /  1.6 km/h 96 % 0.00 in /  0 mm 83 W/m2
10:14 37.6 °F /  3.1 °C 36.3 °F /  2.4 °C 29.68 in /  1005 hPa Calm   1.0 mph /  1.6 km/h 95 % 0.01 in /  0.25 mm 84 W/m2
10:19 37.6 °F /  3.1 °C 36.3 °F /  2.4 °C 29.68 in /  1005 hPa Calm     95 % 0.01 in /  0.25 mm 83 W/m2
10:24 37.6 °F /  3.1 °C 36.5 °F /  2.5 °C 29.68 in /  1005 hPa WNW 1.0 mph /  1.6 km/h 2.0 mph /  3.2 km/h 96 % 0.01 in /  0.25 mm 83 W/m2
10:29 37.8 °F /  3.2 °C 36.5 °F /  2.5 °C 29.68 in /  1005 hPa Calm     95 % 0.01 in /  0.25 mm 84 W/m2
10:34 37.8 °F /  3.2 °C 36.7 °F /  2.6 °C 29.68 in /  1005 hPa Calm   1.0 mph /  1.6 km/h 96 % 0.01 in /  0.25 mm 88 W/m2
10:39 37.9 °F /  3.3 °C 36.9 °F /  2.7 °C 29.68 in /  1005 hPa Calm   1.0 mph /  1.6 km/h 96 % 0.01 in /  0.25 mm 88 W/m2
10:45 37.9 °F /  3.3 °C 36.9 °F /  2.7 °C 29.68 in /  1005 hPa Calm   1.0 mph /  1.6 km/h 96 % 0.01 in /  0.25 mm 84 W/m2
10:50 37.9 °F /  3.3 °C 36.6 °F /  2.6 °C 29.69 in /  1005.3 hPa Calm   1.0 mph /  1.6 km/h 95 % 0.01 in /  0.25 mm 79 W/m2
10:54 37.9 °F /  3.3 °C 36.6 °F /  2.6 °C 29.69 in /  1005.3 hPa Calm     95 % 0.01 in /  0.25 mm 74 W/m2
10:59 38.1 °F /  3.4 °C 36.8 °F /  2.7 °C 29.68 in /  1005 hPa Calm   3.0 mph /  4.8 km/h 95 % 0.01 in /  0.25 mm 72 W/m2
11:05 38.1 °F /  3.4 °C 36.8 °F /  2.7 °C 29.69 in /  1005.3 hPa Calm   1.0 mph /  1.6 km/h 95 % 0.01 in /  0.25 mm 67 W/m2
11:10 38.1 °F /  3.4 °C 37.1 °F /  2.8 °C 29.69 in /  1005.3 hPa Calm   1.0 mph /  1.6 km/h 96 % 0.01 in /  0.25 mm 60 W/m2
11:15 38.3 °F /  3.5 °C 37.3 °F /  2.9 °C 29.69 in /  1005.3 hPa Calm     96 % 0.00 in /  0 mm 60 W/m2
11:20 38.3 °F /  3.5 °C 37.0 °F /  2.8 °C 29.69 in /  1005.3 hPa Calm   2.0 mph /  3.2 km/h 95 % 0.00 in /  0 mm 56 W/m2
11:25 38.3 °F /  3.5 °C 37.0 °F /  2.8 °C 29.68 in /  1005 hPa WNW 1.0 mph /  1.6 km/h 2.0 mph /  3.2 km/h 95 % 0.00 in /  0 mm 60 W/m2
11:30 38.3 °F /  3.5 °C 37.0 °F /  2.8 °C 29.68 in /  1005 hPa Calm   1.0 mph /  1.6 km/h 95 % 0.01 in /  0.25 mm 60 W/m2
11:35 38.3 °F /  3.5 °C 37.0 °F /  2.8 °C 29.68 in /  1005 hPa Calm   2.0 mph /  3.2 km/h 95 % 0.01 in /  0.25 mm 69 W/m2
11:40 38.1 °F /  3.4 °C 36.8 °F /  2.7 °C 29.68 in /  1005 hPa WNW 1.0 mph /  1.6 km/h 2.0 mph /  3.2 km/h 95 % 0.01 in /  0.25 mm 74 W/m2
11:45 38.1 °F /  3.4 °C 36.8 °F /  2.7 °C 29.68 in /  1005 hPa WNW 1.0 mph /  1.6 km/h 2.0 mph /  3.2 km/h 95 % 0.01 in /  0.25 mm 72 W/m2
11:50 38.1 °F /  3.4 °C 36.8 °F /  2.7 °C 29.68 in /  1005 hPa Calm   1.0 mph /  1.6 km/h 95 % 0.01 in /  0.25 mm 63 W/m2
11:55 38.1 °F /  3.4 °C 36.8 °F /  2.7 °C 29.68 in /  1005 hPa Calm   2.0 mph /  3.2 km/h 95 % 0.01 in /  0.25 mm 70 W/m2
12:00 38.1 °F /  3.4 °C 36.8 °F /  2.7 °C 29.68 in /  1005 hPa SSW 1.0 mph /  1.6 km/h 2.0 mph /  3.2 km/h 95 % 0.02 in /  0.51 mm 86 W/m2
12:05 37.9 °F /  3.3 °C 36.6 °F /  2.6 °C 29.68 in /  1005 hPa Calm     95 % 0.02 in /  0.51 mm 91 W/m2
12:10 37.9 °F /  3.3 °C 36.6 °F /  2.6 °C 29.68 in /  1005 hPa Calm     95 % 0.02 in /  0.51 mm 88 W/m2
12:15 37.9 °F /  3.3 °C 36.6 °F /  2.6 °C 29.68 in /  1005 hPa Calm     95 % 0.02 in /  0.51 mm 79 W/m2
12:20 37.9 °F /  3.3 °C 36.6 °F /  2.6 °C 29.68 in /  1005 hPa Calm     95 % 0.02 in /  0.51 mm 74 W/m2
12:25 37.9 °F /  3.3 °C 36.4 °F /  2.4 °C 29.68 in /  1005 hPa Calm     94 % 0.02 in /  0.51 mm 72 W/m2
12:30 37.9 °F /  3.3 °C 36.4 °F /  2.4 °C 29.68 in /  1005 hPa Calm     94 % 0.01 in /  0.25 mm 74 W/m2
12:35 37.9 °F /  3.3 °C 36.4 °F /  2.4 °C 29.68 in /  1005 hPa Calm     94 % 0.01 in /  0.25 mm 77 W/m2
12:40 38.1 °F /  3.4 °C 36.5 °F /  2.5 °C 29.68 in /  1005 hPa Calm     94 % 0.02 in /  0.51 mm 77 W/m2
12:45 38.1 °F /  3.4 °C 36.5 °F /  2.5 °C 29.68 in /  1005 hPa Calm     94 % 0.02 in /  0.51 mm 79 W/m2
12:50 38.1 °F /  3.4 °C 36.5 °F /  2.5 °C 29.68 in /  1005 hPa Calm     94 % 0.02 in /  0.51 mm 84 W/m2
12:55 38.1 °F /  3.4 °C 36.5 °F /  2.5 °C 29.68 in /  1005 hPa Calm     94 % 0.02 in /  0.51 mm 81 W/m2
13:00 38.1 °F /  3.4 °C 36.5 °F /  2.5 °C 29.68 in /  1005 hPa Calm     94 % 0.01 in /  0.25 mm 79 W/m2
13:05 38.5 °F /  3.6 °C 36.9 °F /  2.7 °C 29.68 in /  1005 hPa Calm     94 % 0.01 in /  0.25 mm 86 W/m2
13:10 38.5 °F /  3.6 °C 36.9 °F /  2.7 °C 29.68 in /  1005 hPa Calm     94 % 0.02 in /  0.51 mm 93 W/m2
13:15 38.7 °F /  3.7 °C 37.1 °F /  2.8 °C 29.68 in /  1005 hPa Calm     94 % 0.02 in /  0.51 mm 100 W/m2
13:20 38.5 °F /  3.6 °C 36.9 °F /  2.7 °C 29.68 in /  1005 hPa Calm     94 % 0.02 in /  0.51 mm 104 W/m2
13:25 38.5 °F /  3.6 °C 36.9 °F /  2.7 °C 29.68 in /  1005 hPa Calm     94 % 0.02 in /  0.51 mm 105 W/m2
13:30 38.5 °F /  3.6 °C 36.9 °F /  2.7 °C 29.68 in /  1005 hPa Calm     94 % 0.02 in /  0.51 mm 102 W/m2
13:35 38.5 °F /  3.6 °C 36.9 °F /  2.7 °C 29.69 in /  1005.3 hPa Calm     94 % 0.02 in /  0.51 mm 97 W/m2
13:40 38.5 °F /  3.6 °C 36.9 °F /  2.7 °C 29.69 in /  1005.3 hPa Calm     94 % 0.01 in /  0.25 mm 88 W/m2
13:45 38.7 °F /  3.7 °C 37.1 °F /  2.8 °C 29.69 in /  1005.3 hPa Calm     94 % 0.02 in /  0.51 mm 81 W/m2
13:50 38.7 °F /  3.7 °C 37.1 °F /  2.8 °C 29.69 in /  1005.3 hPa Calm     94 % 0.02 in /  0.51 mm 67 W/m2
13:56 38.7 °F /  3.7 °C 37.1 °F /  2.8 °C 29.69 in /  1005.3 hPa Calm     94 % 0.02 in /  0.51 mm 56 W/m2
14:01 38.7 °F /  3.7 °C 37.1 °F /  2.8 °C 29.69 in /  1005.3 hPa Calm     94 % 0.02 in /  0.51 mm 51 W/m2
14:06 38.7 °F /  3.7 °C 36.8 °F /  2.7 °C 29.69 in /  1005.3 hPa Calm     93 % 0.02 in /  0.51 mm 49 W/m2
14:11 38.7 °F /  3.7 °C 36.8 °F /  2.7 °C 29.69 in /  1005.3 hPa Calm     93 % 0.01 in /  0.25 mm 53 W/m2
14:16 38.7 °F /  3.7 °C 36.8 °F /  2.7 °C 29.69 in /  1005.3 hPa Calm     93 % 0.01 in /  0.25 mm 40 W/m2
14:21 38.5 °F /  3.6 °C 36.6 °F /  2.6 °C 29.69 in /  1005.3 hPa Calm   1.0 mph /  1.6 km/h 93 % 0.01 in /  0.25 mm 32 W/m2
14:26 38.5 °F /  3.6 °C 36.6 °F /  2.6 °C 29.70 in /  1005.6 hPa ENE 1.0 mph /  1.6 km/h 5.0 mph /  8 km/h 93 % 0.01 in /  0.25 mm 25 W/m2
14:31 38.5 °F /  3.6 °C 36.6 °F /  2.6 °C 29.70 in /  1005.6 hPa Calm   2.0 mph /  3.2 km/h 93 % 0.01 in /  0.25 mm 21 W/m2
14:36 38.5 °F /  3.6 °C 36.6 °F /  2.6 °C 29.70 in /  1005.6 hPa ENE 2.0 mph /  3.2 km/h 5.0 mph /  8 km/h 93 % 0.01 in /  0.25 mm 25 W/m2
14:41 38.5 °F /  3.6 °C 36.6 °F /  2.6 °C 29.70 in /  1005.6 hPa Calm   1.0 mph /  1.6 km/h 93 % 0.00 in /  0 mm 37 W/m2
14:46 38.5 °F /  3.6 °C 36.6 °F /  2.6 °C 29.70 in /  1005.6 hPa Calm   2.0 mph /  3.2 km/h 93 % 0.00 in /  0 mm 46 W/m2
14:51 38.5 °F /  3.6 °C 36.6 °F /  2.6 °C 29.70 in /  1005.6 hPa ENE 3.0 mph /  4.8 km/h 6.0 mph /  9.7 km/h 93 % 0.01 in /  0.25 mm 44 W/m2
14:56 38.1 °F /  3.4 °C 36.3 °F /  2.4 °C 29.70 in /  1005.6 hPa NE 2.0 mph /  3.2 km/h 5.0 mph /  8 km/h 93 % 0.01 in /  0.25 mm 33 W/m2
15:01 38.1 °F /  3.4 °C 36.3 °F /  2.4 °C 29.71 in /  1006 hPa NE 3.0 mph /  4.8 km/h 7.0 mph /  11.3 km/h 93 % 0.01 in /  0.25 mm 28 W/m2
15:06 38.1 °F /  3.4 °C 36.5 °F /  2.5 °C 29.71 in /  1006 hPa NE 3.0 mph /  4.8 km/h 6.0 mph /  9.7 km/h 94 % 0.01 in /  0.25 mm 30 W/m2
15:11 38.1 °F /  3.4 °C 36.5 °F /  2.5 °C 29.71 in /  1006 hPa ENE 2.0 mph /  3.2 km/h 5.0 mph /  8 km/h 94 % 0.01 in /  0.25 mm 35 W/m2
15:16 37.9 °F /  3.3 °C 36.4 °F /  2.4 °C 29.71 in /  1006 hPa ENE 3.0 mph /  4.8 km/h 5.0 mph /  8 km/h 94 % 0.01 in /  0.25 mm 28 W/m2
15:21 37.9 °F /  3.3 °C 36.4 °F /  2.4 °C 29.71 in /  1006 hPa ENE 2.0 mph /  3.2 km/h 6.0 mph /  9.7 km/h 94 % 0.01 in /  0.25 mm 18 W/m2
15:26 37.9 °F /  3.3 °C 36.4 °F /  2.4 °C 29.71 in /  1006 hPa NE 3.0 mph /  4.8 km/h 6.0 mph /  9.7 km/h 94 % 0.01 in /  0.25 mm 19 W/m2
15:31 37.9 °F /  3.3 °C 36.4 °F /  2.4 °C 29.72 in /  1006.3 hPa NE 2.0 mph /  3.2 km/h 7.0 mph /  11.3 km/h 94 % 0.01 in /  0.25 mm 21 W/m2
15:36 37.9 °F /  3.3 °C 36.4 °F /  2.4 °C 29.72 in /  1006.3 hPa NE 2.0 mph /  3.2 km/h 6.0 mph /  9.7 km/h 94 % 0.01 in /  0.25 mm 28 W/m2
15:41 37.9 °F /  3.3 °C 36.4 °F /  2.4 °C 29.72 in /  1006.3 hPa ENE 2.0 mph /  3.2 km/h 5.0 mph /  8 km/h 94 % 0.01 in /  0.25 mm 37 W/m2
15:46 37.9 °F /  3.3 °C 36.4 °F /  2.4 °C 29.72 in /  1006.3 hPa ENE 3.0 mph /  4.8 km/h 8.0 mph /  12.9 km/h 94 % 0.00 in /  0 mm 39 W/m2
15:51 37.8 °F /  3.2 °C 36.2 °F /  2.3 °C 29.73 in /  1006.7 hPa NE 4.0 mph /  6.4 km/h 6.0 mph /  9.7 km/h 94 % 0.01 in /  0.25 mm 28 W/m2
15:56 37.6 °F /  3.1 °C 36.0 °F /  2.2 °C 29.73 in /  1006.7 hPa NE 5.0 mph /  8 km/h 9.0 mph /  14.5 km/h 94 % 0.01 in /  0.25 mm 28 W/m2
16:01 37.6 °F /  3.1 °C 36.0 °F /  2.2 °C 29.73 in /  1006.7 hPa NE 5.0 mph /  8 km/h 8.0 mph /  12.9 km/h 94 % 0.01 in /  0.25 mm 23 W/m2
16:06 37.6 °F /  3.1 °C 36.0 °F /  2.2 °C 29.73 in /  1006.7 hPa NNE 3.0 mph /  4.8 km/h 6.0 mph /  9.7 km/h 94 % 0.01 in /  0.25 mm 26 W/m2
16:11 37.4 °F /  3 °C 35.8 °F /  2.1 °C 29.74 in /  1007 hPa NE 5.0 mph /  8 km/h 9.0 mph /  14.5 km/h 94 % 0.01 in /  0.25 mm 23 W/m2
16:16 37.4 °F /  3 °C 35.8 °F /  2.1 °C 29.74 in /  1007 hPa NE 3.0 mph /  4.8 km/h 7.0 mph /  11.3 km/h 94 % 0.01 in /  0.25 mm 19 W/m2
16:21 37.2 °F /  2.9 °C 35.7 °F /  2.1 °C 29.74 in /  1007 hPa NE 3.0 mph /  4.8 km/h 7.0 mph /  11.3 km/h 94 % 0.01 in /  0.25 mm 14 W/m2
16:27 37.2 °F /  2.9 °C 35.7 °F /  2.1 °C 29.74 in /  1007 hPa NE 2.0 mph /  3.2 km/h 6.0 mph /  9.7 km/h 94 % 0.02 in /  0.51 mm 7 W/m2
16:32 37.2 °F /  2.9 °C 35.9 °F /  2.2 °C 29.74 in /  1007 hPa NE 1.0 mph /  1.6 km/h 4.0 mph /  6.4 km/h 95 % 0.02 in /  0.51 mm 7 W/m2
16:37 37.2 °F /  2.9 °C 35.9 °F /  2.2 °C 29.75 in /  1007.3 hPa NE 2.0 mph /  3.2 km/h 6.0 mph /  9.7 km/h 95 % 0.02 in /  0.51 mm 5 W/m2
16:42 37.2 °F /  2.9 °C 35.9 °F /  2.2 °C 29.75 in /  1007.3 hPa NE 1.0 mph /  1.6 km/h 6.0 mph /  9.7 km/h 95 % 0.02 in /  0.51 mm 0 W/m2
16:47 37.0 °F /  2.8 °C 35.7 °F /  2.1 °C 29.75 in /  1007.3 hPa NE 3.0 mph /  4.8 km/h 7.0 mph /  11.3 km/h 95 % 0.02 in /  0.51 mm 0 W/m2
16:52 37.0 °F /  2.8 °C 35.5 °F /  1.9 °C 29.75 in /  1007.3 hPa ENE 2.0 mph /  3.2 km/h 5.0 mph /  8 km/h 94 % 0.01 in /  0.25 mm 0 W/m2
16:57 37.0 °F /  2.8 °C 35.7 °F /  2.1 °C 29.76 in /  1007.7 hPa NE 1.0 mph /  1.6 km/h 3.0 mph /  4.8 km/h 95 % 0.02 in /  0.51 mm 0 W/m2
17:02 37.0 °F /  2.8 °C 35.7 °F /  2.1 °C 29.76 in /  1007.7 hPa NE 2.0 mph /  3.2 km/h 7.0 mph /  11.3 km/h 95 % 0.02 in /  0.51 mm 0 W/m2
17:07 37.0 °F /  2.8 °C 35.7 °F /  2.1 °C 29.76 in /  1007.7 hPa NE 3.0 mph /  4.8 km/h 6.0 mph /  9.7 km/h 95 % 0.02 in /  0.51 mm 0 W/m2
17:12 36.9 °F /  2.7 °C 35.6 °F /  2 °C 29.77 in /  1008 hPa NE 2.0 mph /  3.2 km/h 5.0 mph /  8 km/h 95 % 0.02 in /  0.51 mm 0 W/m2
17:17 36.9 °F /  2.7 °C 35.6 °F /  2 °C 29.77 in /  1008 hPa NE 1.0 mph /  1.6 km/h 6.0 mph /  9.7 km/h 95 % 0.02 in /  0.51 mm 0 W/m2
17:22 36.7 °F /  2.6 °C 35.4 °F /  1.9 °C 29.77 in /  1008 hPa ENE 2.0 mph /  3.2 km/h 6.0 mph /  9.7 km/h 95 % 0.02 in /  0.51 mm 0 W/m2
17:27 36.7 °F /  2.6 °C 35.4 °F /  1.9 °C 29.78 in /  1008.4 hPa NE 3.0 mph /  4.8 km/h 7.0 mph /  11.3 km/h 95 % 0.01 in /  0.25 mm 0 W/m2
17:32 36.5 °F /  2.5 °C 35.2 °F /  1.8 °C 29.78 in /  1008.4 hPa NE 5.0 mph /  8 km/h 9.0 mph /  14.5 km/h 95 % 0.01 in /  0.25 mm 0 W/m2
17:37 36.3 °F /  2.4 °C 35.0 °F /  1.7 °C 29.79 in /  1008.7 hPa NE 3.0 mph /  4.8 km/h 7.0 mph /  11.3 km/h 95 % 0.01 in /  0.25 mm 0 W/m2
17:42 36.3 °F /  2.4 °C 35.0 °F /  1.7 °C 29.79 in /  1008.7 hPa NE 4.0 mph /  6.4 km/h 7.0 mph /  11.3 km/h 95 % 0.01 in /  0.25 mm 0 W/m2
17:47 36.3 °F /  2.4 °C 35.0 °F /  1.7 °C 29.79 in /  1008.7 hPa NE 3.0 mph /  4.8 km/h 6.0 mph /  9.7 km/h 95 % 0.01 in /  0.25 mm 0 W/m2
17:52 36.1 °F /  2.3 °C 34.8 °F /  1.6 °C 29.80 in /  1009 hPa Calm   2.0 mph /  3.2 km/h 95 % 0.01 in /  0.25 mm 0 W/m2
17:57 36.1 °F /  2.3 °C 34.8 °F /  1.6 °C 29.80 in /  1009 hPa Calm   2.0 mph /  3.2 km/h 95 % 0.00 in /  0 mm 0 W/m2
18:02 36.3 °F /  2.4 °C 35.0 °F /  1.7 °C 29.80 in /  1009 hPa NNE 3.0 mph /  4.8 km/h 6.0 mph /  9.7 km/h 95 % 0.00 in /  0 mm 0 W/m2
18:07 36.3 °F /  2.4 °C 35.0 °F /  1.7 °C 29.81 in /  1009.4 hPa NE 4.0 mph /  6.4 km/h 8.0 mph /  12.9 km/h 95 % 0.01 in /  0.25 mm 0 W/m2
18:12 36.3 °F /  2.4 °C 35.0 °F /  1.7 °C 29.81 in /  1009.4 hPa NE 3.0 mph /  4.8 km/h 7.0 mph /  11.3 km/h 95 % 0.01 in /  0.25 mm 0 W/m2
18:17 36.1 °F /  2.3 °C 34.8 °F /  1.6 °C 29.81 in /  1009.4 hPa NNE 3.0 mph /  4.8 km/h 6.0 mph /  9.7 km/h 95 % 0.01 in /  0.25 mm 0 W/m2
18:22 36.3 °F /  2.4 °C 35.0 °F /  1.7 °C 29.81 in /  1009.4 hPa NNE 1.0 mph /  1.6 km/h 5.0 mph /  8 km/h 95 % 0.01 in /  0.25 mm 0 W/m2
18:27 36.3 °F /  2.4 °C 35.0 °F /  1.7 °C 29.82 in /  1009.7 hPa NE 3.0 mph /  4.8 km/h 6.0 mph /  9.7 km/h 95 % 0.01 in /  0.25 mm 0 W/m2
18:32 36.3 °F /  2.4 °C 35.0 °F /  1.7 °C 29.82 in /  1009.7 hPa NNE 1.0 mph /  1.6 km/h 4.0 mph /  6.4 km/h 95 % 0.01 in /  0.25 mm 0 W/m2
18:37 36.3 °F /  2.4 °C 35.0 °F /  1.7 °C 29.82 in /  1009.7 hPa NE 2.0 mph /  3.2 km/h 6.0 mph /  9.7 km/h 95 % 0.01 in /  0.25 mm 0 W/m2
18:42 36.5 °F /  2.5 °C 35.2 °F /  1.8 °C 29.83 in /  1010 hPa North 1.0 mph /  1.6 km/h 4.0 mph /  6.4 km/h 95 % 0.01 in /  0.25 mm 0 W/m2
18:48 36.5 °F /  2.5 °C 35.2 °F /  1.8 °C 29.83 in /  1010 hPa North 2.0 mph /  3.2 km/h 6.0 mph /  9.7 km/h 95 % 0.01 in /  0.25 mm 0 W/m2
18:53 36.7 °F /  2.6 °C 35.4 °F /  1.9 °C 29.83 in /  1010 hPa North 2.0 mph /  3.2 km/h 6.0 mph /  9.7 km/h 95 % 0.01 in /  0.25 mm 0 W/m2
18:58 36.7 °F /  2.6 °C 35.4 °F /  1.9 °C 29.83 in /  1010 hPa North 2.0 mph /  3.2 km/h 7.0 mph /  11.3 km/h 95 % 0.01 in /  0.25 mm 0 W/m2
19:03 36.7 °F /  2.6 °C 35.4 °F /  1.9 °C 29.84 in /  1010.4 hPa North 4.0 mph /  6.4 km/h 7.0 mph /  11.3 km/h 95 % 0.01 in /  0.25 mm 0 W/m2
19:08 36.7 °F /  2.6 °C 35.4 °F /  1.9 °C 29.84 in /  1010.4 hPa North 4.0 mph /  6.4 km/h 8.0 mph /  12.9 km/h 95 % 0.00 in /  0 mm 0 W/m2
19:13 36.7 °F /  2.6 °C 35.4 °F /  1.9 °C 29.84 in /  1010.4 hPa North 3.0 mph /  4.8 km/h 6.0 mph /  9.7 km/h 95 % 0.00 in /  0 mm 0 W/m2
19:18 36.7 °F /  2.6 °C 35.6 °F /  2 °C 29.84 in /  1010.4 hPa North 3.0 mph /  4.8 km/h 6.0 mph /  9.7 km/h 96 % 0.00 in /  0 mm 0 W/m2
19:23 36.7 °F /  2.6 °C 35.4 °F /  1.9 °C 29.84 in /  1010.4 hPa North 5.0 mph /  8 km/h 7.0 mph /  11.3 km/h 95 % 0.00 in /  0 mm 0 W/m2
19:28 36.7 °F /  2.6 °C 35.6 °F /  2 °C 29.85 in /  1010.7 hPa North 4.0 mph /  6.4 km/h 7.0 mph /  11.3 km/h 96 % 0.00 in /  0 mm 0 W/m2
19:33 36.7 °F /  2.6 °C 35.6 °F /  2 °C 29.85 in /  1010.7 hPa NNE 2.0 mph /  3.2 km/h 6.0 mph /  9.7 km/h 96 % 0.00 in /  0 mm 0 W/m2
19:38 36.7 °F /  2.6 °C 35.6 °F /  2 °C 29.85 in /  1010.7 hPa NNE 3.0 mph /  4.8 km/h 8.0 mph /  12.9 km/h 96 % 0.00 in /  0 mm 0 W/m2
19:43 36.7 °F /  2.6 °C 35.6 °F /  2 °C 29.86 in /  1011.1 hPa North 3.0 mph /  4.8 km/h 6.0 mph /  9.7 km/h 96 % 0.00 in /  0 mm 0 W/m2
19:48 36.7 °F /  2.6 °C 35.6 °F /  2 °C 29.86 in /  1011.1 hPa North 4.0 mph /  6.4 km/h 7.0 mph /  11.3 km/h 96 % 0.00 in /  0 mm 0 W/m2
19:53 36.9 °F /  2.7 °C 35.8 °F /  2.1 °C 29.87 in /  1011.4 hPa NNE 4.0 mph /  6.4 km/h 8.0 mph /  12.9 km/h 96 % 0.00 in /  0 mm 0 W/m2
19:58 36.9 °F /  2.7 °C 35.8 °F /  2.1 °C 29.87 in /  1011.4 hPa NNE 5.0 mph /  8 km/h 8.0 mph /  12.9 km/h 96 % 0.01 in /  0.25 mm 0 W/m2
20:03 36.9 °F /  2.7 °C 35.8 °F /  2.1 °C 29.87 in /  1011.4 hPa North 5.0 mph /  8 km/h 10.0 mph /  16.1 km/h 96 % 0.01 in /  0.25 mm 0 W/m2
20:08 36.9 °F /  2.7 °C 35.8 °F /  2.1 °C 29.88 in /  1011.7 hPa NNE 3.0 mph /  4.8 km/h 6.0 mph /  9.7 km/h 96 % 0.01 in /  0.25 mm 0 W/m2
20:13 36.9 °F /  2.7 °C 35.8 °F /  2.1 °C 29.88 in /  1011.7 hPa NNE 1.0 mph /  1.6 km/h 7.0 mph /  11.3 km/h 96 % 0.01 in /  0.25 mm 0 W/m2
20:18 36.9 °F /  2.7 °C 35.8 °F /  2.1 °C 29.89 in /  1012.1 hPa North 3.0 mph /  4.8 km/h 7.0 mph /  11.3 km/h 96 % 0.01 in /  0.25 mm 0 W/m2
20:23 37.0 °F /  2.8 °C 36.0 °F /  2.2 °C 29.89 in /  1012.1 hPa North 4.0 mph /  6.4 km/h 7.0 mph /  11.3 km/h 96 % 0.01 in /  0.25 mm 0 W/m2
20:28 37.0 °F /  2.8 °C 36.0 °F /  2.2 °C 29.89 in /  1012.1 hPa North 4.0 mph /  6.4 km/h 8.0 mph /  12.9 km/h 96 % 0.01 in /  0.25 mm 0 W/m2
20:33 37.0 °F /  2.8 °C 36.0 °F /  2.2 °C 29.89 in /  1012.1 hPa North 4.0 mph /  6.4 km/h 6.0 mph /  9.7 km/h 96 % 0.01 in /  0.25 mm 0 W/m2
20:38 37.0 °F /  2.8 °C 36.0 °F /  2.2 °C 29.89 in /  1012.1 hPa NNE 2.0 mph /  3.2 km/h 5.0 mph /  8 km/h 96 % 0.01 in /  0.25 mm 0 W/m2
20:43 37.0 °F /  2.8 °C 36.0 °F /  2.2 °C 29.90 in /  1012.4 hPa NNW 3.0 mph /  4.8 km/h 5.0 mph /  8 km/h 96 % 0.01 in /  0.25 mm 0 W/m2
20:48 37.0 °F /  2.8 °C 36.0 °F /  2.2 °C 29.90 in /  1012.4 hPa NNW 2.0 mph /  3.2 km/h 5.0 mph /  8 km/h 96 % 0.01 in /  0.25 mm 0 W/m2
20:53 37.2 °F /  2.9 °C 36.2 °F /  2.3 °C 29.91 in /  1012.8 hPa North 2.0 mph /  3.2 km/h 6.0 mph /  9.7 km/h 96 % 0.01 in /  0.25 mm 0 W/m2
20:58 37.2 °F /  2.9 °C 36.2 °F /  2.3 °C 29.91 in /  1012.8 hPa NNE 1.0 mph /  1.6 km/h 4.0 mph /  6.4 km/h 96 % 0.00 in /  0 mm 0 W/m2
21:04 37.2 °F /  2.9 °C 36.2 °F /  2.3 °C 29.91 in /  1012.8 hPa North 3.0 mph /  4.8 km/h 7.0 mph /  11.3 km/h 96 % 0.00 in /  0 mm 0 W/m2
21:09 37.2 °F /  2.9 °C 36.2 °F /  2.3 °C 29.91 in /  1012.8 hPa NNE 1.0 mph /  1.6 km/h 7.0 mph /  11.3 km/h 96 % 0.00 in /  0 mm 0 W/m2
21:14 37.2 °F /  2.9 °C 36.2 °F /  2.3 °C 29.92 in /  1013.1 hPa North 2.0 mph /  3.2 km/h 6.0 mph /  9.7 km/h 96 % 0.00 in /  0 mm 0 W/m2
21:19 37.2 °F /  2.9 °C 36.2 °F /  2.3 °C 29.92 in /  1013.1 hPa NNW 4.0 mph /  6.4 km/h 8.0 mph /  12.9 km/h 96 % 0.00 in /  0 mm 0 W/m2
21:24 37.2 °F /  2.9 °C 36.2 °F /  2.3 °C 29.92 in /  1013.1 hPa NNW 6.0 mph /  9.7 km/h 9.0 mph /  14.5 km/h 96 % 0.00 in /  0 mm 0 W/m2
21:29 37.2 °F /  2.9 °C 36.2 °F /  2.3 °C 29.93 in /  1013.4 hPa North 6.0 mph /  9.7 km/h 11.0 mph /  17.7 km/h 96 % 0.00 in /  0 mm 0 W/m2
21:34 37.4 °F /  3 °C 36.4 °F /  2.4 °C 29.94 in /  1013.8 hPa North 4.0 mph /  6.4 km/h 7.0 mph /  11.3 km/h 96 % 0.00 in /  0 mm 0 W/m2
21:39 37.4 °F /  3 °C 36.4 °F /  2.4 °C 29.94 in /  1013.8 hPa North 3.0 mph /  4.8 km/h 6.0 mph /  9.7 km/h 96 % 0.00 in /  0 mm 0 W/m2
21:44 37.4 °F /  3 °C 36.4 °F /  2.4 °C 29.94 in /  1013.8 hPa North 4.0 mph /  6.4 km/h 10.0 mph /  16.1 km/h 96 % 0.00 in /  0 mm 0 W/m2
21:49 37.6 °F /  3.1 °C 36.5 °F /  2.5 °C 29.95 in /  1014.1 hPa North 5.0 mph /  8 km/h 13.0 mph /  20.9 km/h 96 % 0.00 in /  0 mm 0 W/m2
21:54 37.4 °F /  3 °C 36.4 °F /  2.4 °C 29.95 in /  1014.1 hPa North 3.0 mph /  4.8 km/h 7.0 mph /  11.3 km/h 96 % 0.00 in /  0 mm 0 W/m2
21:59 37.4 °F /  3 °C 36.4 °F /  2.4 °C 29.95 in /  1014.1 hPa North 5.0 mph /  8 km/h 9.0 mph /  14.5 km/h 96 % 0.00 in /  0 mm 0 W/m2
22:01 37.2 °F /  2.9 °C 36.2 °F /  2.3 °C 29.95 in /  1014.1 hPa NNE 5.0 mph /  8 km/h 8.0 mph /  12.9 km/h 96 % 0.00 in /  0 mm 0 W/m2
22:06 37.2 °F /  2.9 °C 36.2 °F /  2.3 °C 29.95 in /  1014.1 hPa North 5.0 mph /  8 km/h 11.0 mph /  17.7 km/h 96 % 0.00 in /  0 mm 0 W/m2
22:11 37.2 °F /  2.9 °C 36.2 °F /  2.3 °C 29.96 in /  1014.4 hPa NNE 4.0 mph /  6.4 km/h 9.0 mph /  14.5 km/h 96 % 0.00 in /  0 mm 0 W/m2
22:16 37.2 °F /  2.9 °C 36.2 °F /  2.3 °C 29.96 in /  1014.4 hPa NNE 5.0 mph /  8 km/h 10.0 mph /  16.1 km/h 96 % 0.00 in /  0 mm 0 W/m2
22:21 37.2 °F /  2.9 °C 36.2 °F /  2.3 °C 29.97 in /  1014.8 hPa NNE 4.0 mph /  6.4 km/h 7.0 mph /  11.3 km/h 96 % 0.00 in /  0 mm 0 W/m2
22:26 37.4 °F /  3 °C 36.4 °F /  2.4 °C 29.97 in /  1014.8 hPa North 5.0 mph /  8 km/h 8.0 mph /  12.9 km/h 96 % 0.00 in /  0 mm 0 W/m2
22:31 37.4 °F /  3 °C 36.4 °F /  2.4 °C 29.97 in /  1014.8 hPa North 3.0 mph /  4.8 km/h 7.0 mph /  11.3 km/h 96 % 0.00 in /  0 mm 0 W/m2
22:36 37.4 °F /  3 °C 36.4 °F /  2.4 °C 29.97 in /  1014.8 hPa North 4.0 mph /  6.4 km/h 10.0 mph /  16.1 km/h 96 % 0.00 in /  0 mm 0 W/m2
22:41 37.4 °F /  3 °C 36.4 °F /  2.4 °C 29.98 in /  1015.1 hPa NNE 4.0 mph /  6.4 km/h 7.0 mph /  11.3 km/h 96 % 0.00 in /  0 mm 0 W/m2
22:46 37.4 °F /  3 °C 36.4 °F /  2.4 °C 29.98 in /  1015.1 hPa North 5.0 mph /  8 km/h 9.0 mph /  14.5 km/h 96 % 0.00 in /  0 mm 0 W/m2
22:51 37.4 °F /  3 °C 36.4 °F /  2.4 °C 29.98 in /  1015.1 hPa North 4.0 mph /  6.4 km/h 8.0 mph /  12.9 km/h 96 % 0.00 in /  0 mm 0 W/m2
22:56 37.4 °F /  3 °C 36.4 °F /  2.4 °C 29.99 in /  1015.5 hPa North 5.0 mph /  8 km/h 9.0 mph /  14.5 km/h 96 % 0.00 in /  0 mm 0 W/m2
23:01 37.4 °F /  3 °C 36.4 °F /  2.4 °C 29.99 in /  1015.5 hPa North 5.0 mph /  8 km/h 9.0 mph /  14.5 km/h 96 % 0.00 in /  0 mm 0 W/m2
23:06 37.4 °F /  3 °C 36.4 °F /  2.4 °C 29.99 in /  1015.5 hPa NNE 4.0 mph /  6.4 km/h 7.0 mph /  11.3 km/h 96 % 0.00 in /  0 mm 0 W/m2
23:11 37.4 °F /  3 °C 36.4 °F /  2.4 °C 30.00 in /  1015.8 hPa NNE 3.0 mph /  4.8 km/h 8.0 mph /  12.9 km/h 96 % 0.00 in /  0 mm 0 W/m2
23:16 37.6 °F /  3.1 °C 36.5 °F /  2.5 °C 30.00 in /  1015.8 hPa NNE 5.0 mph /  8 km/h 9.0 mph /  14.5 km/h 96 % 0.00 in /  0 mm 0 W/m2
23:21 37.6 °F /  3.1 °C 36.5 °F /  2.5 °C 30.00 in /  1015.8 hPa NNE 3.0 mph /  4.8 km/h 7.0 mph /  11.3 km/h 96 % 0.00 in /  0 mm 0 W/m2
23:26 37.6 °F /  3.1 °C 36.5 °F /  2.5 °C 30.01 in /  1016.1 hPa NNE 5.0 mph /  8 km/h 9.0 mph /  14.5 km/h 96 % 0.00 in /  0 mm 0 W/m2
23:31 37.6 °F /  3.1 °C 36.5 °F /  2.5 °C 30.01 in /  1016.1 hPa NNE 4.0 mph /  6.4 km/h 8.0 mph /  12.9 km/h 96 % 0.00 in /  0 mm 0 W/m2
23:37 37.6 °F /  3.1 °C 36.5 °F /  2.5 °C 30.02 in /  1016.5 hPa NE 4.0 mph /  6.4 km/h 10.0 mph /  16.1 km/h 96 % 0.00 in /  0 mm 0 W/m2
23:41 37.6 °F /  3.1 °C 36.5 °F /  2.5 °C 30.02 in /  1016.5 hPa North 3.0 mph /  4.8 km/h 7.0 mph /  11.3 km/h 96 % 0.00 in /  0 mm 0 W/m2
23:47 37.6 °F /  3.1 °C 36.5 °F /  2.5 °C 30.02 in /  1016.5 hPa ENE 2.0 mph /  3.2 km/h 8.0 mph /  12.9 km/h 96 % 0.00 in /  0 mm 0 W/m2
23:52 37.6 °F /  3.1 °C 36.5 °F /  2.5 °C 30.02 in /  1016.5 hPa NE 6.0 mph /  9.7 km/h 13.0 mph /  20.9 km/h 96 % 0.00 in /  0 mm 0 W/m2
23:57 37.6 °F /  3.1 °C 36.5 °F /  2.5 °C 30.03 in /  1016.8 hPa ENE 6.0 mph /  9.7 km/h 13.0 mph /  20.9 km/h 96 % 0.00 in /  0 mm 0 W/m2
Delerius-Weather
Compliments of Weather Underground - 2.25 mb

Data updates at regular intervals.